All
Birdsville Airport (Birdsville, Queensland) BVI Weather
|
Birdsville, Queensland (BVI / YBDV)
Clear skies
Windy |
|
75 °F |
BVI Terminal Area Forecast
| Date | Time (AEST) | Flight Rules | Wind Dir. | Speed | Type | Height AGL (ft) | Visibility | Remarks | ||||||
|---|---|---|---|---|---|---|---|---|---|---|---|---|---|---|
| 05-May | 05:00PM | VFR | 160° | 14 kt | Clouds and Visibility are OK | >= 6 miles | ||||||||
| 05-May | 04:00PM | VFR | 160° | 14 kt | Clouds and Visibility are OK | >= 6 miles | ||||||||
| 05-May | 03:00PM | VFR | 160° | 14 kt | Clouds and Visibility are OK | >= 6 miles | ||||||||
Recent BVI METAR history
| Date | Time (AEST) | Flight Rules | Wind Dir. | Speed | Type | Height AGL (ft) | Visibility | Temp (°C) | Temp (°F) | Dew Point (°C) | Dew Point (°F) | Rel. Humid. | Pressure | Density Altitude | Remarks |
|---|---|---|---|---|---|---|---|---|---|---|---|---|---|---|---|
| 05-May | 03:00PM | VFR | 190° | 13 kt | 10000 meters | 24° | 75° | 5° | 41° | 29% | 1019 mb | 1,066 ft | |||
| 05-May | 02:00PM | VFR | 180° | 11 kt | 10000 meters | 23° | 73° | 5° | 41° | 31% | 1019 mb | 946 ft | |||
| 05-May | 01:00PM | VFR | 160° | 12 kt | 10000 meters | 23° | 73° | 5° | 41° | 31% | 1020 mb | 916 ft | |||
| 05-May | 12:00PM | VFR | 140° | 12 kt | 10000 meters | 22° | 71° | 5° | 41° | 33% | 1021 mb | 767 ft | |||
| 05-May | 11:00AM | VFR | 180° | 12 kt | 10000 meters | 21° | 69° | 6° | 42° | 38% | 1022 mb | 617 ft | |||
| 05-May | 10:00AM | VFR | 180° | 9 kt | 10000 meters | 20° | 68° | 8° | 46° | 46% | 1022 mb | 497 ft | |||
| 05-May | 09:00AM | VFR | 170° | 5 kt | 10000 meters | 17° | 62° | 8° | 46° | 55% | 1022 mb | 137 ft | |||
| 05-May | 08:00AM | VFR | 240° | 6 kt | 10000 meters | 12° | 53° | 8° | 46° | 76% | 1021 mb | -433 ft | |||
| 05-May | 07:00AM | VFR | 210° | 5 kt | 10000 meters | 9° | 48° | 6° | 42° | 81% | 1021 mb | -793 ft | |||
| 05-May | 06:00AM | VFR | 150° | 3 kt | 10000 meters | 10° | 50° | 8° | 46° | 87% | 1020 mb | -644 ft | |||
| 05-May | 05:00AM | VFR | Calm | 10000 meters | 9° | 48° | 6° | 42° | 81% | 1020 mb | -764 ft | ||||
| 05-May | 04:00AM | VFR | 150° | 3 kt | 10000 meters | 10° | 50° | 7° | 44° | 82% | 1020 mb | -644 ft | |||
| 05-May | 03:00AM | VFR | 170° | 4 kt | 10000 meters | 12° | 53° | 7° | 44° | 71% | 1020 mb | -404 ft | |||
| 05-May | 02:00AM | VFR | 180° | 5 kt | 10000 meters | 12° | 53° | 7° | 44° | 71% | 1020 mb | -404 ft | |||
| 05-May | 01:00AM | VFR | 210° | 5 kt | 10000 meters | 12° | 53° | 6° | 42° | 67% | 1021 mb | -433 ft | |||
| 05-May | 12:00AM | VFR | 200° | 6 kt | 10000 meters | 12° | 53° | 6° | 42° | 67% | 1021 mb | -433 ft | |||
| 04-May | 11:00PM | VFR | 230° | 6 kt | 10000 meters | 13° | 55° | 5° | 41° | 58% | 1021 mb | -313 ft | |||
| 04-May | 10:00PM | VFR | 230° | 7 kt | 10000 meters | 14° | 57° | 4° | 39° | 51% | 1021 mb | -193 ft | |||
| 04-May | 09:00PM | VFR | 220° | 6 kt | 10000 meters | 15° | 59° | 4° | 39° | 48% | 1021 mb | -73 ft | |||
| 04-May | 08:00PM | VFR | 190° | 7 kt | 10000 meters | 18° | 64° | 5° | 41° | 42% | 1020 mb | 316 ft | |||
| 04-May | 07:00PM | VFR | 190° | 6 kt | 10000 meters | 19° | 66° | 5° | 41° | 40% | 1019 mb | 466 ft | |||
| 04-May | 06:00PM | VFR | 200° | 9 kt | 10000 meters | 22° | 71° | 4° | 39° | 31% | 1019 mb | 826 ft | |||
| 04-May | 05:00PM | VFR | 210° | 12 kt | 10000 meters | 23° | 73° | 4° | 39° | 29% | 1018 mb | 975 ft | |||
| 04-May | 04:00PM | VFR | 230° | 11 kt | 10000 meters | 24° | 75° | 3° | 37° | 25% | 1018 mb | 1,095 ft |
Login
| Your browser is unsupported. upgrade your browser |
